createdAt,value
2022-12-20T00:01:28.019Z,0.40
2022-12-20T00:03:57.247Z,0.40
2022-12-20T00:06:25.380Z,0.40
2022-12-20T00:08:57.681Z,0.40
2022-12-20T00:11:26.213Z,0.40
2022-12-20T00:13:53.657Z,0.50
2022-12-20T00:16:23.395Z,0.50
2022-12-20T00:18:59.464Z,0.50
2022-12-20T00:21:28.016Z,0.50
2022-12-20T00:23:55.991Z,0.50
2022-12-20T00:26:25.948Z,0.40
2022-12-20T00:28:53.450Z,0.50
2022-12-20T00:31:22.290Z,0.40
2022-12-20T00:33:51.711Z,0.40
2022-12-20T00:36:20.388Z,0.40
2022-12-20T00:38:49.919Z,0.40
2022-12-20T00:41:22.775Z,0.40
2022-12-20T00:43:52.433Z,0.40
2022-12-20T00:46:21.695Z,0.30
2022-12-20T00:48:49.457Z,0.40
2022-12-20T00:51:20.398Z,0.40
2022-12-20T00:53:48.401Z,0.30
2022-12-20T00:56:15.870Z,0.30
2022-12-20T00:58:43.661Z,0.30
2022-12-20T01:01:24.126Z,0.30
2022-12-20T01:03:53.471Z,0.40
2022-12-20T01:06:21.834Z,0.50
2022-12-20T01:08:49.249Z,0.50
2022-12-20T01:11:26.756Z,0.60
2022-12-20T01:14:04.020Z,0.60
2022-12-20T01:16:43.975Z,0.60
2022-12-20T01:19:13.786Z,0.70
2022-12-20T01:21:44.796Z,0.70
2022-12-20T01:24:17.321Z,0.70
2022-12-20T01:26:45.310Z,0.70
2022-12-20T01:29:14.189Z,0.80
2022-12-20T01:31:43.365Z,0.80
2022-12-20T01:34:11.819Z,0.80
2022-12-20T01:36:39.526Z,0.80
2022-12-20T01:39:15.924Z,0.90
2022-12-20T01:41:45.871Z,0.90
2022-12-20T01:44:57.042Z,0.90
2022-12-20T01:47:26.442Z,0.90
2022-12-20T01:49:56.106Z,1.00
2022-12-20T01:52:39.770Z,1.00
2022-12-20T01:55:21.577Z,0.90
2022-12-20T01:58:10.292Z,1.00
2022-12-20T02:00:37.782Z,0.90
2022-12-20T02:03:08.450Z,1.00
2022-12-20T02:05:42.687Z,1.00
2022-12-20T02:08:11.704Z,1.00
2022-12-20T02:11:22.632Z,1.00
2022-12-20T02:14:20.999Z,1.10
2022-12-20T02:17:27.652Z,1.10
2022-12-20T02:20:23.664Z,1.00
2022-12-20T02:23:33.842Z,1.10
2022-12-20T02:26:44.200Z,1.10
2022-12-20T02:29:50.183Z,1.00
2022-12-20T02:32:26.202Z,1.00
2022-12-20T02:34:53.607Z,1.10
2022-12-20T02:37:21.181Z,1.10
2022-12-20T02:39:49.476Z,1.10
2022-12-20T02:42:21.610Z,1.00
2022-12-20T02:45:12.736Z,1.00
2022-12-20T02:47:47.969Z,1.00
2022-12-20T02:50:21.756Z,1.00
2022-12-20T02:52:50.776Z,1.00
2022-12-20T02:55:20.141Z,0.90
2022-12-20T02:58:00.569Z,0.90
2022-12-20T03:00:34.298Z,0.90
2022-12-20T03:03:20.900Z,0.90
2022-12-20T03:05:50.332Z,0.80
2022-12-20T03:08:21.820Z,0.80
2022-12-20T03:10:50.624Z,0.80
2022-12-20T03:13:18.128Z,0.90
2022-12-20T03:15:53.660Z,0.80
2022-12-20T03:18:21.465Z,0.90
2022-12-20T03:20:48.848Z,0.80
2022-12-20T03:23:16.149Z,0.80
2022-12-20T03:25:43.729Z,0.80
2022-12-20T03:28:16.828Z,0.80
2022-12-20T03:30:44.427Z,0.90
2022-12-20T03:33:11.826Z,0.90
2022-12-20T03:35:41.106Z,1.00
2022-12-20T03:38:10.266Z,1.00
2022-12-20T03:40:37.794Z,1.00
2022-12-20T03:43:05.381Z,1.00
2022-12-20T03:45:32.778Z,1.00
2022-12-20T03:48:00.179Z,1.00
2022-12-20T03:50:32.149Z,1.00
2022-12-20T03:53:01.821Z,1.00
2022-12-20T03:55:29.249Z,1.00
2022-12-20T03:57:56.616Z,1.00
2022-12-20T04:00:33.093Z,1.00
2022-12-20T04:03:20.483Z,1.00
2022-12-20T04:05:47.960Z,1.00
2022-12-20T04:08:15.361Z,1.00
2022-12-20T04:11:01.315Z,1.00
2022-12-20T04:13:34.075Z,1.10
2022-12-20T04:16:01.773Z,1.00
2022-12-20T04:18:32.748Z,1.10
2022-12-20T04:21:01.940Z,1.10
2022-12-20T04:23:31.644Z,1.10
2022-12-20T04:25:59.896Z,1.10
2022-12-20T04:28:29.300Z,1.10
2022-12-20T04:30:57.073Z,1.10
2022-12-20T04:33:28.185Z,1.00
2022-12-20T04:35:56.036Z,1.10
2022-12-20T04:38:25.046Z,1.00
2022-12-20T04:40:55.075Z,1.00
2022-12-20T04:43:24.571Z,1.00
2022-12-20T04:45:58.988Z,1.00
2022-12-20T04:51:16.370Z,1.00
2022-12-20T04:53:48.118Z,1.00
2022-12-20T04:56:28.962Z,1.00
2022-12-20T04:59:04.142Z,1.00
2022-12-20T05:01:32.002Z,1.10
2022-12-20T05:03:59.766Z,1.00
2022-12-20T05:06:31.101Z,1.00
2022-12-20T05:08:58.801Z,1.00
2022-12-20T05:11:26.249Z,0.90
2022-12-20T05:13:53.951Z,0.90
2022-12-20T05:16:22.304Z,0.90
2022-12-20T05:18:50.029Z,0.90
2022-12-20T05:21:36.611Z,1.00
2022-12-20T05:24:24.362Z,1.00
2022-12-20T05:27:01.466Z,1.00
2022-12-20T05:29:29.506Z,1.00
2022-12-20T05:31:57.378Z,0.90
2022-12-20T05:34:25.496Z,0.90
2022-12-20T05:36:54.635Z,0.90
2022-12-20T05:39:24.327Z,1.00
2022-12-20T05:41:55.030Z,1.00
2022-12-20T05:44:26.050Z,1.00
2022-12-20T05:46:56.635Z,1.00
2022-12-20T05:49:29.013Z,1.00
2022-12-20T05:51:59.003Z,1.10
2022-12-20T05:54:26.426Z,1.10
2022-12-20T05:57:07.148Z,1.10
2022-12-20T05:59:42.069Z,1.10
2022-12-20T06:02:16.505Z,1.10
2022-12-20T06:04:46.883Z,1.10
2022-12-20T06:07:20.281Z,1.20
2022-12-20T06:09:51.344Z,1.20
2022-12-20T06:12:21.178Z,1.20
2022-12-20T06:14:48.915Z,1.20
2022-12-20T06:17:17.485Z,1.30
2022-12-20T06:19:45.257Z,1.30
2022-12-20T06:22:16.638Z,1.40
2022-12-20T06:24:49.061Z,1.30
2022-12-20T06:27:22.255Z,1.40
2022-12-20T06:29:57.875Z,1.40
2022-12-20T06:32:30.375Z,1.40
2022-12-20T06:34:58.283Z,1.40
2022-12-20T06:37:25.636Z,1.30
2022-12-20T06:39:53.190Z,1.40
2022-12-20T06:42:21.300Z,1.30
2022-12-20T06:44:48.822Z,1.30
2022-12-20T06:47:16.319Z,1.20
2022-12-20T06:49:43.657Z,1.30
2022-12-20T06:52:21.613Z,1.30
2022-12-20T06:54:51.714Z,1.30
2022-12-20T06:57:21.492Z,1.30
2022-12-20T06:59:49.869Z,1.30
2022-12-20T07:02:17.566Z,1.30
2022-12-20T07:04:45.198Z,1.30
2022-12-20T07:07:13.656Z,1.30
2022-12-20T07:09:43.826Z,1.20
2022-12-20T07:12:11.673Z,1.30
2022-12-20T07:14:39.129Z,1.20
2022-12-20T07:17:07.678Z,1.30
2022-12-20T07:19:36.374Z,1.30
2022-12-20T07:22:05.524Z,1.30
2022-12-20T07:24:33.571Z,1.40
2022-12-20T07:27:01.739Z,1.40
2022-12-20T07:29:29.240Z,1.40
2022-12-20T07:31:56.786Z,1.40
2022-12-20T07:34:24.166Z,1.40
2022-12-20T07:36:53.425Z,1.40
2022-12-20T07:39:20.740Z,1.40
2022-12-20T07:41:48.129Z,1.40
2022-12-20T07:44:17.443Z,1.40
2022-12-20T07:46:44.836Z,1.40
2022-12-20T07:49:12.187Z,1.50
2022-12-20T07:51:48.551Z,1.50
2022-12-20T07:54:23.463Z,1.60
2022-12-20T07:56:55.189Z,1.60
2022-12-20T07:59:28.848Z,1.60
2022-12-20T08:02:02.358Z,1.70
2022-12-20T08:04:32.030Z,1.70
2022-12-20T08:07:01.292Z,1.70
2022-12-20T08:09:31.399Z,1.70
2022-12-20T08:11:59.411Z,1.70
2022-12-20T08:14:27.056Z,1.70
2022-12-20T08:16:54.448Z,1.70
2022-12-20T08:19:24.360Z,1.70
2022-12-20T08:21:55.853Z,1.70
2022-12-20T08:24:23.333Z,1.70
2022-12-20T08:26:50.696Z,1.70
2022-12-20T08:29:18.073Z,1.70
2022-12-20T08:31:50.039Z,1.70
2022-12-20T08:34:19.037Z,1.60
2022-12-20T08:36:46.455Z,1.60
2022-12-20T08:39:13.865Z,1.60
2022-12-20T08:41:41.249Z,1.60
2022-12-20T08:44:10.752Z,1.50
2022-12-20T08:46:38.944Z,1.50
2022-12-20T08:49:07.265Z,1.60
2022-12-20T08:51:34.691Z,1.70
2022-12-20T08:54:02.792Z,1.70
2022-12-20T08:56:30.216Z,1.70
2022-12-20T08:58:57.667Z,1.80
2022-12-20T09:01:26.989Z,1.80
2022-12-20T09:03:54.540Z,1.80
2022-12-20T09:06:23.076Z,1.80
2022-12-20T09:08:50.618Z,1.80
2022-12-20T09:11:21.084Z,1.90
2022-12-20T09:13:50.859Z,1.80
2022-12-20T09:16:21.667Z,1.90
2022-12-20T09:18:57.709Z,1.90
2022-12-20T09:21:28.320Z,1.90
2022-12-20T09:23:57.240Z,2.00
2022-12-20T09:26:25.253Z,2.00
2022-12-20T09:28:53.793Z,2.10
2022-12-20T09:31:24.018Z,2.00
2022-12-20T09:33:58.051Z,2.10
2022-12-20T09:36:28.061Z,2.20
2022-12-20T09:38:56.420Z,2.30
2022-12-20T09:41:40.513Z,2.40
2022-12-20T09:44:25.378Z,2.70
2022-12-20T09:47:10.870Z,2.70
2022-12-20T09:49:42.957Z,2.70
2022-12-20T09:53:12.209Z,2.50
2022-12-20T09:55:50.775Z,2.50
2022-12-20T09:58:59.201Z,2.40
2022-12-20T10:01:36.328Z,2.40
2022-12-20T10:04:25.380Z,2.40
2022-12-20T10:07:30.138Z,2.50
2022-12-20T10:10:23.866Z,2.60
2022-12-20T10:13:29.056Z,2.60
2022-12-20T10:16:34.849Z,2.60
2022-12-20T10:19:57.215Z,2.50
2022-12-20T10:23:04.216Z,2.30
2022-12-20T10:25:33.974Z,2.20
2022-12-20T10:28:09.638Z,2.10
2022-12-20T10:30:37.166Z,2.10
2022-12-20T10:33:05.047Z,2.10
2022-12-20T10:35:40.712Z,2.10
2022-12-20T10:38:17.547Z,2.10
2022-12-20T10:44:03.698Z,2.30
2022-12-20T10:46:43.809Z,2.30
2022-12-20T10:49:43.719Z,2.30
2022-12-20T10:52:14.751Z,2.20
2022-12-20T10:54:44.176Z,2.20
2022-12-20T10:57:29.801Z,2.20
2022-12-20T11:00:03.306Z,2.10
2022-12-20T11:02:41.401Z,2.10
2022-12-20T11:05:30.160Z,2.10
2022-12-20T11:08:40.852Z,2.10
2022-12-20T11:11:13.147Z,2.20
2022-12-20T11:13:41.610Z,2.20
2022-12-20T11:16:25.394Z,2.20
2022-12-20T11:19:45.213Z,2.20
2022-12-20T11:22:56.469Z,2.40
2022-12-20T11:26:16.171Z,2.50
2022-12-20T11:29:25.319Z,2.60
2022-12-20T11:32:31.781Z,2.70
2022-12-20T11:44:53.973Z,2.40
2022-12-20T12:10:44.332Z,2.40
2022-12-20T12:13:17.723Z,2.30
2022-12-20T12:16:08.447Z,2.30
2022-12-20T12:18:38.212Z,2.30
2022-12-20T12:21:27.391Z,2.10
2022-12-20T12:24:19.397Z,2.00
2022-12-20T12:26:46.996Z,2.00
2022-12-20T12:29:17.076Z,2.00
2022-12-20T12:32:08.817Z,2.00
2022-12-20T12:35:05.487Z,2.00
2022-12-20T12:38:18.470Z,2.00
2022-12-20T12:41:43.330Z,1.90
2022-12-20T12:48:01.208Z,1.90
2022-12-20T12:50:33.621Z,2.00
2022-12-20T12:53:08.983Z,2.00
2022-12-20T12:55:51.250Z,2.00
2022-12-20T12:58:48.832Z,2.00
2022-12-20T13:02:06.083Z,2.00
2022-12-20T13:05:28.277Z,2.00
2022-12-20T13:07:56.655Z,2.00
2022-12-20T13:13:30.912Z,1.90
2022-12-20T13:16:11.313Z,1.90
2022-12-20T13:18:38.980Z,1.90
2022-12-20T13:21:31.547Z,2.00
2022-12-20T13:24:57.018Z,1.90
2022-12-20T13:27:33.456Z,1.90
2022-12-20T13:30:30.636Z,1.90
2022-12-20T13:33:15.615Z,1.90
2022-12-20T13:35:58.392Z,1.90
2022-12-20T13:38:56.983Z,1.90
2022-12-20T13:41:47.019Z,1.90
2022-12-20T13:44:34.605Z,1.90
2022-12-20T13:47:07.531Z,1.90
2022-12-20T13:49:43.208Z,1.90
2022-12-20T13:52:27.058Z,1.80
2022-12-20T13:54:58.405Z,1.80
2022-12-20T13:57:39.200Z,1.80
2022-12-20T14:00:25.617Z,1.80
2022-12-20T14:02:54.445Z,1.80
2022-12-20T14:05:26.700Z,1.80
2022-12-20T14:08:05.408Z,1.70
2022-12-20T14:10:35.316Z,1.70
2022-12-20T14:13:03.504Z,1.70
2022-12-20T14:15:35.978Z,1.70
2022-12-20T14:18:16.607Z,1.70
2022-12-20T14:20:47.267Z,1.60
2022-12-20T14:23:21.751Z,1.60
2022-12-20T14:25:57.099Z,1.60
2022-12-20T14:28:50.624Z,1.60
2022-12-20T14:31:49.534Z,1.60
2022-12-20T14:34:29.436Z,1.60
2022-12-20T14:37:37.475Z,1.60
2022-12-20T14:40:18.440Z,1.50
2022-12-20T14:42:45.946Z,1.50
2022-12-20T14:45:28.149Z,1.50
2022-12-20T14:47:57.214Z,1.50
2022-12-20T14:50:31.641Z,1.50
2022-12-20T14:52:59.890Z,1.60
2022-12-20T14:55:36.643Z,1.50
2022-12-20T14:58:26.096Z,1.60
2022-12-20T15:00:59.273Z,1.60
2022-12-20T15:03:27.452Z,1.60
2022-12-20T15:06:00.197Z,1.60
2022-12-20T15:08:35.041Z,1.60
2022-12-20T15:11:28.882Z,1.60
2022-12-20T15:13:57.072Z,1.70
2022-12-20T15:16:27.189Z,1.70
2022-12-20T15:18:56.750Z,1.70
2022-12-20T15:21:43.012Z,1.70
2022-12-20T15:24:21.969Z,1.70
2022-12-20T15:26:50.102Z,1.70
2022-12-20T15:29:26.440Z,1.70
2022-12-20T15:32:29.762Z,1.60
2022-12-20T15:34:57.371Z,1.70
2022-12-20T15:37:24.745Z,1.70
2022-12-20T15:39:52.056Z,1.70
2022-12-20T15:42:21.124Z,1.70
2022-12-20T15:44:48.581Z,1.70
2022-12-20T15:47:17.018Z,1.70
2022-12-20T15:49:49.778Z,1.70
2022-12-20T15:52:23.370Z,1.70
2022-12-20T15:54:50.960Z,1.80
2022-12-20T15:57:18.676Z,1.70
2022-12-20T15:59:59.739Z,1.70
2022-12-20T16:02:31.077Z,1.70
2022-12-20T16:04:59.503Z,1.60
2022-12-20T16:07:28.004Z,1.60
2022-12-20T16:09:55.317Z,1.70
2022-12-20T16:12:33.192Z,1.70
2022-12-20T16:15:00.694Z,1.70
2022-12-20T16:17:28.081Z,1.70
2022-12-20T16:19:55.552Z,1.70
2022-12-20T16:22:26.433Z,1.70
2022-12-20T16:24:54.034Z,1.70
2022-12-20T16:27:21.729Z,1.70
2022-12-20T16:29:49.160Z,1.70
2022-12-20T16:32:18.261Z,1.70
2022-12-20T16:34:46.217Z,1.70
2022-12-20T16:37:14.217Z,1.70
2022-12-20T16:39:42.237Z,1.70
2022-12-20T16:42:18.283Z,1.70
2022-12-20T16:44:46.301Z,1.70
2022-12-20T16:47:14.816Z,1.70
2022-12-20T16:49:49.633Z,1.70
2022-12-20T16:52:20.024Z,1.70
2022-12-20T16:54:47.487Z,1.70
2022-12-20T16:57:14.839Z,1.70
2022-12-20T16:59:42.135Z,1.70
2022-12-20T17:02:24.549Z,1.70
2022-12-20T17:04:52.085Z,1.70
2022-12-20T17:07:19.475Z,1.70
2022-12-20T17:12:32.194Z,1.60
2022-12-20T17:14:59.561Z,1.60
2022-12-20T17:17:26.942Z,1.60
2022-12-20T17:19:54.270Z,1.60
2022-12-20T17:22:25.117Z,1.70
2022-12-20T17:24:52.704Z,1.60
2022-12-20T17:27:20.272Z,1.60
2022-12-20T17:29:47.612Z,1.70
2022-12-20T17:32:23.612Z,1.60
2022-12-20T17:34:51.292Z,1.70
2022-12-20T17:37:18.789Z,1.60
2022-12-20T17:39:46.239Z,1.60
2022-12-20T17:42:14.396Z,1.70
2022-12-20T17:44:42.243Z,1.60
2022-12-20T17:47:09.623Z,1.60
2022-12-20T17:49:36.980Z,1.60
2022-12-20T17:52:04.813Z,1.60
2022-12-20T17:54:39.060Z,1.50
2022-12-20T17:57:16.841Z,1.50
2022-12-20T17:59:44.709Z,1.50
2022-12-20T18:02:24.061Z,1.60
2022-12-20T18:04:52.331Z,1.60
2022-12-20T18:07:19.815Z,1.50
2022-12-20T18:09:48.201Z,1.60
2022-12-20T18:12:15.788Z,1.60
2022-12-20T18:14:43.191Z,1.60
2022-12-20T18:17:11.148Z,1.60
2022-12-20T18:19:38.716Z,1.60
2022-12-20T18:22:06.543Z,1.60
2022-12-20T18:24:33.902Z,1.70
2022-12-20T18:27:01.572Z,1.60
2022-12-20T18:29:29.678Z,1.60
2022-12-20T18:31:57.484Z,1.60
2022-12-20T18:34:25.072Z,1.60
2022-12-20T18:36:52.443Z,1.60
2022-12-20T18:39:19.832Z,1.70
2022-12-20T18:41:48.401Z,1.70
2022-12-20T18:44:15.738Z,1.70
2022-12-20T18:46:43.103Z,1.70
2022-12-20T18:49:10.499Z,1.70
2022-12-20T18:51:38.004Z,1.70
2022-12-20T18:54:07.908Z,1.70
2022-12-20T18:56:37.921Z,1.70
2022-12-20T18:59:13.847Z,1.70
2022-12-20T19:01:42.704Z,1.70
2022-12-20T19:04:11.572Z,1.70
2022-12-20T19:06:39.116Z,1.70
2022-12-20T19:09:09.625Z,1.70
2022-12-20T19:11:37.777Z,1.70
2022-12-20T19:14:05.539Z,1.70
2022-12-20T19:16:33.314Z,1.70
2022-12-20T19:19:02.489Z,1.70
2022-12-20T19:21:34.892Z,1.70
2022-12-20T19:24:06.742Z,1.70
2022-12-20T19:26:36.625Z,1.70
2022-12-20T19:29:05.358Z,1.70
2022-12-20T19:31:34.721Z,1.70
2022-12-20T19:34:05.403Z,1.70
2022-12-20T19:36:41.540Z,1.70
2022-12-20T19:39:17.306Z,1.70
2022-12-20T19:41:55.068Z,1.70
2022-12-20T19:44:32.068Z,1.70
2022-12-20T19:47:05.592Z,1.70
2022-12-20T19:49:33.534Z,1.70
2022-12-20T19:52:00.862Z,1.70
2022-12-20T19:54:28.928Z,1.70
2022-12-20T19:56:57.569Z,1.70
2022-12-20T19:59:25.162Z,1.70
2022-12-20T20:01:52.711Z,1.70
2022-12-20T20:04:20.149Z,1.70
2022-12-20T20:06:47.514Z,1.70
2022-12-20T20:09:15.463Z,1.70
2022-12-20T20:11:42.936Z,1.70
2022-12-20T20:14:10.362Z,1.70
2022-12-20T20:16:38.095Z,1.70
2022-12-20T20:19:05.720Z,1.70
2022-12-20T20:21:36.423Z,1.70
2022-12-20T20:24:04.284Z,1.70
2022-12-20T20:26:31.896Z,1.70
2022-12-20T20:29:01.496Z,1.70
2022-12-20T20:31:29.219Z,1.70
2022-12-20T20:33:57.978Z,1.70
2022-12-20T20:36:25.466Z,1.70
2022-12-20T20:38:52.901Z,1.70
2022-12-20T20:41:20.361Z,1.80
2022-12-20T20:43:48.080Z,1.70
2022-12-20T20:46:17.082Z,1.80
2022-12-20T20:48:44.907Z,1.70
2022-12-20T20:51:12.958Z,1.70
2022-12-20T20:53:40.590Z,1.70
2022-12-20T20:56:08.670Z,1.70
2022-12-20T20:58:36.932Z,1.70
2022-12-20T21:01:08.573Z,1.70
2022-12-20T21:03:36.896Z,1.70
2022-12-20T21:06:38.626Z,1.70
2022-12-20T21:08:53.866Z,1.60
2022-12-20T21:11:21.629Z,1.70
2022-12-20T21:13:49.016Z,1.70
2022-12-20T21:16:22.505Z,1.70
2022-12-20T21:18:54.728Z,1.70
2022-12-20T21:21:23.439Z,1.70
2022-12-20T21:23:51.667Z,1.60
2022-12-20T21:26:20.876Z,1.60
2022-12-20T21:28:48.477Z,1.60
2022-12-20T21:31:19.282Z,1.60
2022-12-20T21:33:47.230Z,1.60
2022-12-20T21:36:18.142Z,1.70
2022-12-20T21:38:50.441Z,1.70
2022-12-20T21:41:19.122Z,1.70
2022-12-20T21:43:46.857Z,1.70
2022-12-20T21:46:14.345Z,1.70
2022-12-20T21:48:43.927Z,1.60
2022-12-20T21:51:20.719Z,1.60
2022-12-20T21:53:50.674Z,1.70
2022-12-20T21:56:19.812Z,1.60
2022-12-20T21:58:47.870Z,1.70
2022-12-20T22:01:19.779Z,1.70
2022-12-20T22:03:53.879Z,1.70
2022-12-20T22:06:21.774Z,1.70
2022-12-20T22:08:49.872Z,1.70
2022-12-20T22:11:18.588Z,1.70
2022-12-20T22:13:46.406Z,1.70
2022-12-20T22:16:25.576Z,1.70
2022-12-20T22:18:54.886Z,1.60
2022-12-20T22:21:25.210Z,1.60
2022-12-20T22:23:55.026Z,1.50
2022-12-20T22:26:24.476Z,1.60
2022-12-20T22:28:54.621Z,1.60
2022-12-20T22:31:23.036Z,1.60
2022-12-20T22:33:53.356Z,1.50
2022-12-20T22:36:20.780Z,1.50
2022-12-20T22:38:48.309Z,1.50
2022-12-20T22:41:22.424Z,1.60
2022-12-20T22:43:50.218Z,1.60
2022-12-20T22:46:18.314Z,1.60
2022-12-20T22:48:46.521Z,1.50
2022-12-20T22:51:19.480Z,1.60
2022-12-20T22:53:47.837Z,1.60
2022-12-20T22:56:16.858Z,1.60
2022-12-20T22:58:44.621Z,1.60
2022-12-20T23:01:14.400Z,1.50
2022-12-20T23:03:42.323Z,1.50
2022-12-20T23:06:13.206Z,1.50
2022-12-20T23:08:41.216Z,1.50
2022-12-20T23:11:44.704Z,1.50
2022-12-20T23:14:41.121Z,1.50
2022-12-20T23:17:10.023Z,1.50
2022-12-20T23:19:55.908Z,1.50
2022-12-20T23:22:40.301Z,1.50
2022-12-20T23:25:16.792Z,1.50
2022-12-20T23:27:47.053Z,1.50
2022-12-20T23:30:18.285Z,1.50
2022-12-20T23:32:45.821Z,1.60
2022-12-20T23:35:18.084Z,1.60
2022-12-20T23:37:46.157Z,1.60
2022-12-20T23:40:15.158Z,1.60
2022-12-20T23:42:42.773Z,1.60
2022-12-20T23:45:11.037Z,1.60
2022-12-20T23:47:38.409Z,1.60
2022-12-20T23:50:06.687Z,1.60
2022-12-20T23:52:34.061Z,1.60
2022-12-20T23:55:01.463Z,1.60
2022-12-20T23:57:31.144Z,1.60
2022-12-20T23:59:58.567Z,1.60
